Time;durP1;ratioP1;P1;durP2;ratioP2;P2;SDS_P1;SDS_P2;PMS_P1;PMS_P2;Temp;Humidity;BMP_temperature;BMP_pressure;BME280_temperature;BME280_humidity;BME280_pressure;Samples;Min_cycle;Max_cycle;Signal;HPM_P1;HPM_P2
2022/06/15 00:00:22;;;;;;;11.88;3.80;;;;;;;13.26;68.96;101834.28;4991268;28;20050;-70
2022/06/15 00:02:48;;;;;;;5.15;3.40;;;;;;;13.24;69.06;101839.00;4990761;28;20524;-71
2022/06/15 00:05:13;;;;;;;7.22;3.55;;;;;;;13.18;68.88;101836.63;5008407;28;20069;-71
2022/06/15 00:07:38;;;;;;;4.22;3.15;;;;;;;13.16;69.06;101833.13;5011159;28;20065;-71
2022/06/15 00:10:04;;;;;;;4.50;3.75;;;;;;;13.14;69.70;101828.75;4991269;28;20427;-71
2022/06/15 00:12:30;;;;;;;5.80;3.58;;;;;;;13.13;68.93;101832.47;4991671;28;20037;-71
2022/06/15 00:14:55;;;;;;;6.85;3.72;;;;;;;13.09;68.90;101836.38;4991297;28;20030;-71
2022/06/15 00:17:21;;;;;;;7.25;3.40;;;;;;;12.98;70.72;101828.91;4990385;28;20026;-71
2022/06/15 00:19:47;;;;;;;4.50;3.58;;;;;;;12.94;69.86;101827.34;4973811;28;20040;-71
2022/06/15 00:22:12;;;;;;;6.80;3.55;;;;;;;12.91;70.32;101822.97;5008000;28;20124;-72
2022/06/15 00:24:37;;;;;;;8.25;3.83;;;;;;;12.90;70.17;101831.25;4999141;28;20045;-71
2022/06/15 00:27:03;;;;;;;6.25;3.70;;;;;;;12.86;69.58;101824.25;4991385;28;20146;-71
2022/06/15 00:29:30;;;;;;;6.25;3.42;;;;;;;12.78;70.25;101822.06;4973438;28;20066;-68
2022/06/15 00:31:56;;;;;;;7.35;3.67;;;;;;;12.74;70.21;101821.38;4973137;28;20041;-71
2022/06/15 00:34:21;;;;;;;8.23;3.55;;;;;;;12.73;70.71;101822.34;4999245;28;20381;-71
2022/06/15 00:36:47;;;;;;;7.68;3.42;;;;;;;12.67;70.94;101824.59;4992899;28;20876;-71
2022/06/15 00:39:15;;;;;;;7.00;3.70;;;;;;;12.66;71.58;101814.66;4989107;28;20042;-70
2022/06/15 00:41:40;;;;;;;6.38;3.90;;;;;;;12.64;71.08;101814.75;4991063;28;20402;-71
2022/06/15 00:44:26;;;;;;;9.18;3.60;;;;;;;12.59;70.57;101814.19;4990708;28;20037;-71
2022/06/15 00:47:04;;;;;;;4.03;3.20;;;;;;;12.54;71.37;101813.59;4973560;28;20031;-71
2022/06/15 00:49:32;;;;;;;8.50;3.53;;;;;;;12.50;71.34;101812.06;4990522;28;20530;-71
2022/06/15 00:52:45;;;;;;;9.68;3.90;;;;;;;12.49;70.02;101811.16;4973180;28;20047;-71
2022/06/15 00:55:21;;;;;;;;;;;;;;;12.52;68.26;101810.97;4966434;28;20057;-71
2022/06/15 00:57:47;;;;;;;6.22;3.80;;;;;;;12.41;71.35;101815.38;4971575;28;20437;-71
2022/06/15 01:00:14;;;;;;;7.05;4.03;;;;;;;12.35;71.44;101813.03;4972752;28;20046;-71
2022/06/15 01:02:41;;;;;;;6.07;4.18;;;;;;;12.29;71.52;101813.44;4972132;28;20053;-71
2022/06/15 01:05:39;;;;;;;7.78;3.58;;;;;;;12.29;71.01;101813.44;4987879;28;20040;-71
2022/06/15 01:08:24;;;;;;;5.40;4.40;;;;;;;12.25;71.23;101804.56;5004277;28;20528;-71
2022/06/15 01:11:05;;;;;;;7.68;4.50;;;;;;;12.20;71.82;101799.41;4991732;28;20037;-71
2022/06/15 01:13:49;;;;;;;8.73;4.32;;;;;;;12.18;71.64;101800.50;4992296;28;20030;-71
2022/06/15 01:16:43;;;;;;;10.52;4.45;;;;;;;12.13;72.11;101799.91;4986577;28;20112;-71
2022/06/15 01:19:44;;;;;;;5.45;4.28;;;;;;;12.04;72.93;101803.22;4971881;28;20502;-71
2022/06/15 01:22:21;;;;;;;5.63;4.22;;;;;;;11.98;72.99;101805.38;4973015;28;20038;-71
2022/06/15 01:25:17;;;;;;;8.43;4.32;;;;;;;11.98;72.47;101810.81;4989760;28;20164;-71
2022/06/15 01:28:19;;;;;;;7.28;4.47;;;;;;;11.96;72.15;101804.56;4990094;28;20573;-70
2022/06/15 01:30:51;;;;;;;6.10;4.80;;;;;;;11.91;73.52;101800.38;4989526;28;20101;-70
2022/06/15 01:33:38;;;;;;;;;;;;;;;11.94;70.04;101798.34;5001243;28;20058;-71
2022/06/15 01:36:09;;;;;;;6.07;4.97;;;;;;;11.82;73.43;101800.94;4989441;28;19913;-71
2022/06/15 01:38:46;;;;;;;7.53;4.40;;;;;;;11.77;73.30;101797.63;4972720;28;20466;-71
2022/06/15 01:41:26;;;;;;;6.22;5.20;;;;;;;11.72;73.00;101795.16;4972607;28;20141;-71
2022/06/15 01:44:10;;;;;;;10.50;5.47;;;;;;;11.70;73.57;101792.56;4989838;28;20438;-71
2022/06/15 01:46:46;;;;;;;9.90;4.63;;;;;;;11.68;73.34;101788.16;4978966;28;20128;-71
2022/06/15 01:49:28;;;;;;;7.13;4.60;;;;;;;11.66;73.22;101796.44;4989064;28;20486;-71
2022/06/15 01:51:57;;;;;;;4.93;4.38;;;;;;;11.64;73.82;101798.34;4989965;28;20089;-71
2022/06/15 01:54:30;;;;;;;9.25;4.68;;;;;;;11.59;74.21;101794.16;4972439;28;20466;-71
2022/06/15 01:56:58;;;;;;;7.57;4.80;;;;;;;11.58;74.50;101789.69;4972695;28;20026;-71
2022/06/15 01:59:31;;;;;;;6.53;4.53;;;;;;;11.54;74.42;101785.41;4972027;28;20081;-71
2022/06/15 02:02:12;;;;;;;8.10;4.63;;;;;;;11.53;73.97;101786.38;4972133;28;20117;-71
2022/06/15 02:04:59;;;;;;;9.23;4.82;;;;;;;11.49;73.81;101791.13;4990985;28;20037;-71
2022/06/15 02:07:34;;;;;;;6.60;4.72;;;;;;;11.47;75.04;101780.34;4987054;28;20105;-70
2022/06/15 02:10:08;;;;;;;5.45;4.40;;;;;;;11.45;74.46;101778.66;4971940;28;20050;-71
2022/06/15 02:12:43;;;;;;;7.30;4.65;;;;;;;11.42;74.12;101768.84;4972112;28;20042;-71
2022/06/15 02:15:13;;;;;;;7.07;4.47;;;;;;;11.40;74.55;101775.34;4987612;28;20030;-71
2022/06/15 02:17:46;;;;;;;6.28;4.53;;;;;;;11.35;75.01;101772.03;4984217;28;20517;-70
2022/06/15 02:20:18;;;;;;;6.90;4.88;;;;;;;11.36;74.04;101773.78;4971899;28;20158;-71
2022/06/15 02:22:46;;;;;;;6.05;4.90;;;;;;;11.33;74.77;101774.84;4988956;28;20033;-71
2022/06/15 02:25:16;;;;;;;7.55;4.65;;;;;;;11.31;75.67;101765.00;4971922;28;20038;-71
2022/06/15 02:27:43;;;;;;;6.20;4.95;;;;;;;11.28;74.60;101767.91;4972471;28;20100;-71
2022/06/15 02:30:13;;;;;;;6.80;4.53;;;;;;;11.25;75.50;101766.25;4971360;28;20541;-71
2022/06/15 02:32:42;;;;;;;7.18;5.07;;;;;;;11.22;74.96;101763.72;4976078;28;20046;-71
2022/06/15 02:35:08;;;;;;;7.50;4.35;;;;;;;11.21;74.93;101768.28;4975668;28;20030;-71
2022/06/15 02:37:34;;;;;;;5.05;4.38;;;;;;;11.20;75.09;101760.22;4971825;28;20037;-71
2022/06/15 02:40:00;;;;;;;4.53;4.13;;;;;;;11.15;76.12;101760.50;4971385;28;20034;-71
2022/06/15 02:42:35;;;;;;;7.93;5.00;;;;;;;11.11;75.73;101763.50;4972164;28;20525;-71
2022/06/15 02:45:17;;;;;;;5.82;4.30;;;;;;;11.10;75.80;101764.47;4971634;28;20039;-71
2022/06/15 02:47:43;;;;;;;6.57;4.90;;;;;;;11.08;76.39;101760.94;4970714;28;20026;-71
2022/06/15 02:50:13;;;;;;;7.15;5.07;;;;;;;11.04;76.28;101760.25;4971591;28;20425;-71
2022/06/15 02:52:43;;;;;;;6.82;4.70;;;;;;;11.03;75.14;101757.63;4971688;28;20041;-71
2022/06/15 02:55:13;;;;;;;7.18;4.53;;;;;;;11.01;76.05;101755.00;4955644;28;20039;-71
2022/06/15 02:57:48;;;;;;;11.50;5.38;;;;;;;10.98;76.13;101749.72;4971673;28;20026;-71
2022/06/15 03:00:16;;;;;;;9.05;4.25;;;;;;;10.92;76.30;101755.56;4975068;28;20107;-71
2022/06/15 03:02:44;;;;;;;8.13;5.00;;;;;;;10.89;76.57;101748.44;4969348;28;20092;-71
2022/06/15 03:05:10;;;;;;;6.97;4.53;;;;;;;10.86;76.67;101753.16;4986949;28;20382;-71
2022/06/15 03:07:35;;;;;;;7.20;4.78;;;;;;;10.85;76.57;101748.69;4987015;28;20180;-70
2022/06/15 03:10:01;;;;;;;8.90;4.85;;;;;;;10.84;76.42;101746.94;4971157;28;20089;-71
2022/06/15 03:12:26;;;;;;;4.63;4.15;;;;;;;10.85;76.10;101752.28;4971900;28;20113;-70
2022/06/15 03:14:52;;;;;;;7.15;4.47;;;;;;;10.80;76.03;101751.69;4970878;28;20022;-71
2022/06/15 03:17:20;;;;;;;8.10;4.88;;;;;;;10.84;75.70;101750.53;4971513;28;20449;-71
2022/06/15 03:19:51;;;;;;;7.70;4.47;;;;;;;10.83;75.89;101756.97;4974063;28;20172;-70
2022/06/15 03:22:17;;;;;;;6.63;4.70;;;;;;;10.84;76.05;101757.84;4975566;28;20138;-71
2022/06/15 03:24:46;;;;;;;8.45;5.38;;;;;;;10.83;76.99;101748.81;4973559;28;20393;-71
2022/06/15 03:27:13;;;;;;;10.32;5.00;;;;;;;10.81;77.42;101758.00;4990625;28;20050;-70
2022/06/15 03:29:42;;;;;;;7.32;5.15;;;;;;;10.80;77.63;101754.41;4973223;28;20026;-71
2022/06/15 03:32:12;;;;;;;7.00;5.55;;;;;;;10.83;78.40;101753.38;4974644;28;20169;-71
2022/06/15 03:34:45;;;;;;;7.07;4.38;;;;;;;10.84;77.00;101753.28;4977523;28;20033;-71
2022/06/15 03:37:11;;;;;;;9.32;5.40;;;;;;;10.86;76.04;101764.06;5001489;28;20037;-71
2022/06/15 03:39:38;;;;;;;9.27;4.50;;;;;;;10.86;76.60;101758.63;4981970;28;21072;-70
2022/06/15 03:42:09;;;;;;;5.10;4.15;;;;;;;10.88;76.23;101753.97;4990101;28;20061;-71
2022/06/15 03:44:34;;;;;;;8.35;4.47;;;;;;;10.86;76.09;101756.75;4977704;28;20049;-71
2022/06/15 03:47:01;;;;;;;6.05;4.35;;;;;;;10.86;77.34;101764.06;4962257;28;20045;-71
2022/06/15 03:49:26;;;;;;;8.18;4.65;;;;;;;10.86;77.56;101764.94;4973762;28;20034;-71
2022/06/15 03:51:52;;;;;;;9.95;4.55;;;;;;;10.86;77.26;101764.94;4975146;28;20050;-71
2022/06/15 03:54:17;;;;;;;7.93;5.10;;;;;;;10.85;76.80;101771.34;4972698;28;20042;-71
2022/06/15 03:56:48;;;;;;;7.32;4.95;;;;;;;10.87;77.05;101765.84;4990417;28;20446;-71
2022/06/15 03:59:28;;;;;;;8.32;4.90;;;;;;;10.87;76.64;101763.13;4988925;28;20038;-71
2022/06/15 04:01:58;;;;;;;8.68;5.25;;;;;;;10.86;77.75;101764.94;4959960;28;20173;-69
2022/06/15 04:04:26;;;;;;;10.95;5.25;;;;;;;10.87;76.98;101765.84;4960209;28;20038;-71
2022/06/15 04:06:51;;;;;;;9.05;5.03;;;;;;;10.87;76.90;101766.72;4972009;28;20061;-71
2022/06/15 04:09:22;;;;;;;7.00;4.75;;;;;;;10.88;76.65;101760.28;4972410;28;20034;-70
2022/06/15 04:12:10;;;;;;;6.78;4.55;;;;;;;10.89;76.49;101762.03;4974966;28;20081;-70
2022/06/15 04:14:39;;;;;;;5.80;4.65;;;;;;;10.91;76.43;101761.94;4974988;28;20161;-70
2022/06/15 04:17:18;;;;;;;7.05;4.45;;;;;;;10.96;75.72;101768.88;4971339;28;20066;-70
2022/06/15 04:22:54;;;;;;;13.20;4.72;;;;;;;11.02;76.45;101762.19;4972521;28;20037;-70
2022/06/15 04:25:19;;;;;;;6.75;4.47;;;;;;;11.04;76.85;101760.25;4972793;28;20034;-71
2022/06/15 04:27:45;;;;;;;6.38;4.80;;;;;;;11.06;77.10;101765.63;4988440;28;20053;-71
2022/06/15 04:30:13;;;;;;;7.63;5.25;;;;;;;11.08;76.45;101756.38;4972481;28;20041;-70
2022/06/15 04:32:41;;;;;;;9.98;5.45;;;;;;;11.11;76.99;101763.50;4973449;28;20034;-70
2022/06/15 04:35:08;;;;;;;8.57;5.50;;;;;;;11.13;76.40;101756.09;4973256;28;20406;-70
2022/06/15 04:37:37;;;;;;;7.70;5.28;;;;;;;11.12;76.78;101754.34;4974133;28;20030;-71
2022/06/15 04:40:14;;;;;;;6.32;5.18;;;;;;;11.17;77.95;101755.81;4974268;28;20046;-70
2022/06/15 04:42:41;;;;;;;12.02;5.53;;;;;;;11.20;77.20;101762.94;4972009;28;20108;-70
2022/06/15 04:45:08;;;;;;;13.73;6.28;;;;;;;11.23;77.01;101760.88;4974136;28;20030;-70
2022/06/15 04:47:38;;;;;;;6.00;4.80;;;;;;;11.29;76.76;101764.25;4970601;28;20529;-71
2022/06/15 04:50:05;;;;;;;10.32;5.63;;;;;;;11.34;76.92;101764.84;4987829;28;20039;-71
2022/06/15 04:52:35;;;;;;;6.27;5.33;;;;;;;11.41;76.42;101769.78;4971378;28;20093;-70
2022/06/15 04:55:01;;;;;;;12.80;5.47;;;;;;;11.47;75.88;101769.44;4973454;28;20293;-70
2022/06/15 04:57:29;;;;;;;10.40;6.20;;;;;;;11.49;76.60;101764.75;4973820;28;20486;-69
2022/06/15 04:59:55;;;;;;;7.22;5.28;;;;;;;11.58;76.08;101766.03;4973019;28;20057;-70
2022/06/15 05:02:20;;;;;;;9.38;5.40;;;;;;;11.61;76.54;101768.59;4993978;28;20493;-70
2022/06/15 05:04:46;;;;;;;9.68;6.07;;;;;;;11.65;76.25;101759.22;4984865;28;20445;-70
2022/06/15 05:07:13;;;;;;;9.18;5.25;;;;;;;11.72;75.73;101757.00;4992166;28;20054;-70
2022/06/15 05:09:40;;;;;;;9.90;6.38;;;;;;;11.78;76.02;101770.25;4992115;28;20080;-70
2022/06/15 05:12:07;;;;;;;9.50;5.70;;;;;;;11.83;76.37;101775.44;4987978;28;20130;-70
2022/06/15 05:14:36;;;;;;;7.28;6.20;;;;;;;11.87;75.76;101769.69;4976144;28;20339;-70
2022/06/15 05:17:04;;;;;;;12.70;6.25;;;;;;;11.92;75.42;101764.81;4971987;28;20069;-70
2022/06/15 05:19:30;;;;;;;12.05;6.53;;;;;;;11.98;76.16;101769.91;4956480;28;20069;-70
2022/06/15 05:21:56;;;;;;;12.52;7.38;;;;;;;12.03;76.89;101774.16;4971519;28;20060;-70
2022/06/15 05:24:22;;;;;;;11.20;7.07;;;;;;;12.06;77.28;101774.84;4971103;28;20597;-71
2022/06/15 05:27:00;;;;;;;15.48;6.97;;;;;;;12.20;77.39;101772.13;4970653;28;20030;-70
2022/06/15 05:29:25;;;;;;;8.13;6.97;;;;;;;12.51;75.97;101768.28;4972063;28;20034;-71
2022/06/15 05:31:56;;;;;;;17.23;7.40;;;;;;;12.60;76.38;101765.94;4974070;28;20067;-71
2022/06/15 05:34:23;;;;;;;12.80;7.72;;;;;;;12.63;75.93;101766.56;4974289;28;20027;-70
2022/06/15 05:36:48;;;;;;;10.65;7.05;;;;;;;12.69;76.37;101776.25;4971212;28;20403;-71
2022/06/15 05:39:14;;;;;;;11.18;6.85;;;;;;;12.75;76.01;101771.22;4973569;28;20040;-70
2022/06/15 05:41:42;;;;;;;11.00;7.22;;;;;;;12.83;75.60;101769.84;4970666;28;20140;-70
2022/06/15 05:44:30;;;;;;;12.00;7.10;;;;;;;12.89;76.25;101763.97;4970467;28;20484;-71
2022/06/15 05:47:00;;;;;;;10.93;6.45;;;;;;;12.98;75.89;101774.28;4973121;28;20099;-71
2022/06/15 05:49:32;;;;;;;14.18;7.57;;;;;;;13.03;76.17;101772.97;4954913;28;20567;-70
2022/06/15 05:51:58;;;;;;;22.58;7.85;;;;;;;13.08;76.79;101780.00;4971684;28;20030;-71
2022/06/15 05:54:25;;;;;;;12.75;6.78;;;;;;;13.17;74.92;101779.38;4971041;28;20042;-71
2022/06/15 05:56:50;;;;;;;10.73;7.28;;;;;;;13.21;75.61;101775.44;4992756;28;20080;-71
2022/06/15 05:59:16;;;;;;;12.80;6.97;;;;;;;13.22;75.36;101775.38;4977823;28;20051;-71
2022/06/15 06:01:41;;;;;;;10.40;6.57;;;;;;;13.30;75.31;101773.97;4988898;28;20084;-71
2022/06/15 06:04:10;;;;;;;12.75;6.90;;;;;;;13.38;75.02;101771.56;4995689;28;20470;-71
2022/06/15 06:06:36;;;;;;;14.07;6.85;;;;;;;13.50;73.58;101777.06;5009224;28;20021;-70
2022/06/15 06:09:01;;;;;;;10.05;6.57;;;;;;;13.61;72.76;101779.03;4986967;28;20031;-71
2022/06/15 06:11:27;;;;;;;12.55;6.82;;;;;;;13.71;73.19;101776.56;4989805;28;20072;-71
2022/06/15 06:13:53;;;;;;;13.32;7.20;;;;;;;13.79;73.63;101782.31;4989058;28;20072;-70
2022/06/15 06:16:19;;;;;;;11.57;6.75;;;;;;;13.85;72.68;101772.81;4989347;28;20030;-70
2022/06/15 06:18:44;;;;;;;14.02;6.90;;;;;;;13.92;73.07;101772.28;4988221;28;20073;-71
2022/06/15 06:21:10;;;;;;;11.63;7.15;;;;;;;13.98;73.25;101776.41;4988811;28;20133;-71
2022/06/15 06:23:36;;;;;;;14.07;7.00;;;;;;;14.08;71.82;101776.63;4971657;28;20383;-70
2022/06/15 06:26:04;;;;;;;10.90;6.65;;;;;;;14.12;72.17;101775.41;4988787;28;20046;-71
2022/06/15 06:28:35;;;;;;;13.15;7.45;;;;;;;14.17;71.13;101774.09;4989260;28;20065;-70
2022/06/15 06:31:03;;;;;;;10.97;6.87;;;;;;;14.22;72.23;101771.94;4988781;28;20042;-71
2022/06/15 06:33:30;;;;;;;13.13;7.35;;;;;;;14.27;73.49;101780.69;4990016;28;20026;-68
2022/06/15 06:35:59;;;;;;;13.55;6.72;;;;;;;14.38;71.07;101776.28;4990962;28;20104;-70
2022/06/15 06:38:25;;;;;;;10.70;7.20;;;;;;;14.49;70.34;101779.97;4989517;28;20026;-70
2022/06/15 06:40:55;;;;;;;13.07;7.18;;;;;;;14.62;70.66;101781.81;4989280;28;20045;-71
2022/06/15 06:43:21;;;;;;;12.50;6.97;;;;;;;14.73;71.33;101781.88;4991568;28;20062;-70
2022/06/15 06:45:47;;;;;;;10.77;7.30;;;;;;;14.82;71.24;101785.78;5007590;28;20354;-71
2022/06/15 06:48:13;;;;;;;12.18;7.10;;;;;;;14.89;71.39;101782.50;5001263;28;20080;-71
2022/06/15 06:50:40;;;;;;;12.15;7.75;;;;;;;14.94;70.42;101785.75;5007691;28;20576;-71
2022/06/15 06:53:07;;;;;;;11.57;7.13;;;;;;;14.98;71.51;101776.31;4989632;28;20033;-71
2022/06/15 06:55:32;;;;;;;10.23;6.25;;;;;;;15.06;70.05;101783.94;5010644;28;20061;-71
2022/06/15 06:58:00;;;;;;;10.20;6.70;;;;;;;15.14;70.90;101786.09;5011643;28;20460;-71
2022/06/15 07:00:27;;;;;;;10.35;7.05;;;;;;;15.22;69.71;101784.50;5012138;28;20099;-71
2022/06/15 07:02:52;;;;;;;12.38;6.90;;;;;;;15.32;68.74;101787.41;4996621;28;20030;-71
2022/06/15 07:05:18;;;;;;;16.45;7.10;;;;;;;15.37;69.37;101782.44;4994346;28;20141;-71
2022/06/15 07:07:44;;;;;;;9.93;6.75;;;;;;;15.46;67.82;101783.59;5006922;28;20034;-71
2022/06/15 07:10:10;;;;;;;12.15;6.72;;;;;;;15.56;67.61;101787.38;4976120;28;20485;-71
2022/06/15 07:12:36;;;;;;;14.48;7.50;;;;;;;15.66;67.29;101791.16;5011039;28;20052;-71
2022/06/15 07:15:03;;;;;;;13.10;6.97;;;;;;;15.78;68.66;101798.44;4989583;28;20041;-72
2022/06/15 07:17:29;;;;;;;12.05;6.60;;;;;;;15.88;68.08;101794.97;4973916;28;20482;-71
2022/06/15 07:19:55;;;;;;;8.60;5.88;;;;;;;15.98;67.67;101796.84;4976557;28;20034;-72
2022/06/15 07:22:21;;;;;;;9.25;6.40;;;;;;;16.09;68.19;101801.50;5010932;28;20057;-72
2022/06/15 07:24:46;;;;;;;11.68;7.85;;;;;;;16.19;66.79;101797.00;4992894;28;20026;-71
2022/06/15 07:27:13;;;;;;;24.00;7.65;;;;;;;16.29;68.41;101798.00;5007968;28;20041;-72
2022/06/15 07:29:38;;;;;;;16.85;8.30;;;;;;;16.41;66.54;101798.84;5007177;28;20053;-69
2022/06/15 07:32:04;;;;;;;13.45;8.10;;;;;;;16.50;66.34;101788.97;4974032;28;20033;-71
2022/06/15 07:34:30;;;;;;;12.23;8.30;;;;;;;16.62;64.94;101796.22;4978512;28;20042;-71
2022/06/15 07:36:55;;;;;;;21.33;9.23;;;;;;;16.69;65.01;101802.94;4995223;28;20496;-71
2022/06/15 07:39:27;;;;;;;19.20;7.25;;;;;;;16.75;66.40;101798.88;4996405;28;20046;-72
2022/06/15 07:41:54;;;;;;;9.15;6.43;;;;;;;16.82;64.61;101789.97;4995517;28;20042;-71
2022/06/15 07:44:22;;;;;;;12.90;6.07;;;;;;;16.92;62.35;101798.31;4988272;28;20061;-71
2022/06/15 07:46:48;;;;;;;12.73;5.95;;;;;;;17.01;63.33;101796.66;5001730;28;20027;-70
2022/06/15 07:52:04;;;;;;;11.75;4.82;;;;;;;17.14;62.33;101802.00;4996482;28;20042;-72
2022/06/15 07:54:29;;;;;;;12.25;4.95;;;;;;;17.21;63.27;101795.88;5007860;28;20045;-72
2022/06/15 07:56:56;;;;;;;12.68;4.78;;;;;;;17.29;59.80;101804.31;4978021;28;20092;-71
2022/06/15 07:59:22;;;;;;;9.45;4.95;;;;;;;17.41;61.00;101805.16;5007581;28;20394;-72
2022/06/15 08:01:48;;;;;;;9.30;4.38;;;;;;;17.52;60.62;101794.06;5005323;28;20042;-72
2022/06/15 08:04:15;;;;;;;8.73;4.03;;;;;;;17.79;61.07;101804.59;5000491;28;20043;-72
2022/06/15 08:06:43;;;;;;;11.48;4.47;;;;;;;18.10;58.87;101801.91;5009905;28;20076;-70
2022/06/15 08:09:11;;;;;;;6.30;3.70;;;;;;;18.57;60.40;101805.88;5006090;28;20037;-71
2022/06/15 08:12:11;;;;;;;8.52;3.55;;;;;;;19.02;55.83;101799.03;5009827;28;20466;-72
2022/06/15 08:14:27;;;;;;;8.18;3.38;;;;;;;19.69;56.22;101800.13;5006642;28;20430;-72
2022/06/15 08:16:53;;;;;;;10.38;3.55;;;;;;;20.17;51.45;101802.75;5000469;28;20040;-70
2022/06/15 08:19:19;;;;;;;11.68;3.17;;;;;;;20.76;51.45;101795.13;5003826;28;20104;-72
2022/06/15 08:21:44;;;;;;;7.70;2.78;;;;;;;21.45;49.55;101796.38;5007390;28;20482;-69
2022/06/15 08:24:11;;;;;;;5.88;3.38;;;;;;;21.69;46.09;101799.41;4991624;28;20068;-71
2022/06/15 08:26:37;;;;;;;5.25;2.55;;;;;;;22.10;47.21;101803.34;5009013;28;20042;-72
2022/06/15 08:29:08;;;;;;;6.43;3.25;;;;;;;22.45;47.57;101792.28;5006271;28;20034;-72
2022/06/15 08:31:34;;;;;;;7.50;3.05;;;;;;;22.66;45.11;101790.84;5008222;28;20046;-71
2022/06/15 08:33:59;;;;;;;10.63;2.80;;;;;;;23.30;43.96;101795.91;5000746;28;20088;-72
2022/06/15 08:36:24;;;;;;;5.93;3.22;;;;;;;23.46;45.39;101792.28;5006892;28;20041;-73
2022/06/15 08:38:51;;;;;;;7.75;2.88;;;;;;;24.01;46.57;101794.34;5006122;28;20102;-72
2022/06/15 08:41:48;;;;;;;6.03;2.63;;;;;;;24.40;45.00;101794.50;5005614;28;20120;-73
2022/06/15 08:44:28;;;;;;;6.82;2.63;;;;;;;24.64;43.73;101791.59;4990591;28;20050;-72
2022/06/15 08:47:28;;;;;;;5.55;2.92;;;;;;;24.74;42.66;101777.47;4981814;28;20057;-73
2022/06/15 08:50:23;;;;;;;8.55;3.03;;;;;;;25.01;43.06;101781.69;4998204;28;20033;-72
2022/06/15 08:53:27;;;;;;;8.07;3.10;;;;;;;25.19;43.07;101784.22;4997947;28;20424;-73
2022/06/15 08:56:17;;;;;;;7.43;3.03;;;;;;;25.18;43.30;101779.66;4997032;28;20052;-72
2022/06/15 08:59:09;;;;;;;10.13;2.85;;;;;;;25.26;42.61;101782.41;4974636;28;20038;-72
2022/06/15 09:01:46;;;;;;;8.27;3.53;;;;;;;25.54;42.16;101782.72;5001086;28;20073;-72
2022/06/15 09:04:50;;;;;;;7.25;3.47;;;;;;;25.95;39.56;101786.03;5000408;28;20029;-73
2022/06/15 09:07:34;;;;;;;7.68;2.97;;;;;;;26.00;40.91;101773.47;4999022;28;20046;-72
2022/06/15 09:09:59;;;;;;;11.82;3.42;;;;;;;25.88;36.58;101773.94;4978839;28;20038;-70
2022/06/15 09:12:49;;;;;;;6.53;2.88;;;;;;;25.85;39.20;101785.44;4999720;28;20168;-72
2022/06/15 09:15:36;;;;;;;10.07;3.40;;;;;;;25.76;39.92;101777.34;5006521;28;20420;-73
2022/06/15 09:18:10;;;;;;;8.90;3.42;;;;;;;26.07;39.40;101780.88;4985294;28;20454;-70
2022/06/15 09:20:46;;;;;;;5.78;3.00;;;;;;;26.43;38.50;101786.59;5008143;28;20065;-72
2022/06/15 09:23:21;;;;;;;7.80;3.30;;;;;;;26.07;36.72;101768.88;5001337;28;20030;-73
2022/06/15 09:25:58;;;;;;;9.15;3.55;;;;;;;25.51;35.93;101780.31;5002167;28;20132;-70
2022/06/15 09:28:39;;;;;;;8.35;3.08;;;;;;;25.52;39.30;101779.25;4987620;28;20091;-72
2022/06/15 09:31:49;;;;;;;7.67;2.93;;;;;;;26.37;40.58;101783.69;5002770;28;20531;-72
2022/06/15 09:34:19;;;;;;;8.82;3.20;;;;;;;26.39;35.25;101782.44;4889335;29;20375;-72
2022/06/15 09:36:52;;;;;;;7.68;2.80;;;;;;;26.57;38.53;101778.41;4983202;28;20042;-72
2022/06/15 09:39:19;;;;;;;7.35;2.78;;;;;;;26.90;37.28;101776.03;5002306;28;20048;-73
2022/06/15 09:41:50;;;;;;;10.65;3.55;;;;;;;26.74;36.48;101774.34;4985869;28;20065;-72
2022/06/15 09:44:33;;;;;;;6.80;3.03;;;;;;;26.62;39.80;101771.16;5001284;28;20085;-72
2022/06/15 09:47:01;;;;;;;6.15;2.60;;;;;;;26.95;37.50;101767.94;4995642;28;20053;-68
2022/06/15 09:49:41;;;;;;;8.65;3.08;;;;;;;27.13;38.20;101768.41;4973995;28;20177;-72
2022/06/15 09:52:25;;;;;;;7.47;3.00;;;;;;;27.53;35.20;101760.44;5004188;28;20041;-72
2022/06/15 09:55:07;;;;;;;14.43;3.55;;;;;;;27.83;34.79;101774.28;4996756;28;20513;-71
2022/06/15 09:57:33;;;;;;;7.93;3.20;;;;;;;27.98;34.55;101763.88;4998734;28;20400;-71
2022/06/15 10:00:02;;;;;;;7.50;3.05;;;;;;;28.12;34.48;101770.41;4973314;28;20054;-72
2022/06/15 10:02:48;;;;;;;11.60;3.40;;;;;;;28.23;35.61;101756.72;4999754;28;20068;-69
2022/06/15 10:05:44;;;;;;;9.35;3.08;;;;;;;28.32;36.43;101767.75;5000966;28;20030;-71
2022/06/15 10:08:14;;;;;;;11.77;3.33;;;;;;;27.89;35.10;101763.16;4989336;28;20042;-71
2022/06/15 10:10:49;;;;;;;8.02;3.30;;;;;;;27.36;33.99;101768.22;4989616;28;20066;-72
2022/06/15 10:13:17;;;;;;;7.03;2.80;;;;;;;27.17;34.35;101766.94;5002613;28;20553;-70
2022/06/15 10:15:42;;;;;;;8.23;2.88;;;;;;;27.50;37.44;101769.22;5006452;28;20116;-71
2022/06/15 10:18:32;;;;;;;9.33;2.97;;;;;;;27.84;35.57;101776.00;4994171;28;20537;-70
2022/06/15 10:21:06;;;;;;;11.45;3.03;;;;;;;28.04;35.78;101776.19;5007513;28;20296;-72
2022/06/15 10:23:40;;;;;;;12.00;3.45;;;;;;;28.12;32.09;101771.28;4989740;28;20449;-72
2022/06/15 10:26:09;;;;;;;9.55;3.03;;;;;;;28.36;36.77;101761.56;5004965;28;20030;-72
2022/06/15 10:28:38;;;;;;;6.75;2.95;;;;;;;28.34;32.11;101765.59;5010958;28;20411;-69
2022/06/15 10:31:11;;;;;;;7.88;2.88;;;;;;;28.49;36.28;101760.75;5011842;28;20025;-71
2022/06/15 10:33:43;;;;;;;7.65;2.13;;;;;;;28.86;36.21;101759.41;4998899;28;20482;-70
2022/06/15 10:36:26;;;;;;;8.50;2.92;;;;;;;28.91;33.98;101759.69;5009839;28;20042;-71
2022/06/15 10:39:12;;;;;;;12.88;3.25;;;;;;;28.57;32.41;101766.19;5004363;28;20506;-71
2022/06/15 10:41:46;;;;;;;9.35;3.22;;;;;;;27.94;32.67;101759.75;5009764;28;20422;-72
2022/06/15 10:44:18;;;;;;;8.73;3.67;;;;;;;27.60;32.81;101766.94;5011606;28;20073;-72
2022/06/15 10:46:57;;;;;;;10.98;3.33;;;;;;;27.40;34.74;101766.75;4999431;28;20390;-72
2022/06/15 10:49:24;;;;;;;8.23;3.00;;;;;;;27.35;36.45;101762.84;5002604;28;20033;-71
2022/06/15 10:51:51;;;;;;;8.27;3.40;;;;;;;27.57;38.05;101755.31;4987456;28;20117;-71
2022/06/15 10:54:16;;;;;;;9.35;2.80;;;;;;;28.21;39.32;101750.47;5006872;28;20071;-72
2022/06/15 11:02:39;;;;;;;12.90;3.97;;;;;;;29.21;32.64;101753.75;4999553;28;20042;-69
2022/06/15 11:05:15;;;;;;;9.30;3.63;;;;;;;28.82;30.66;101746.03;5009170;28;20064;-71
2022/06/15 11:07:57;;;;;;;11.48;3.70;;;;;;;28.91;32.35;101742.88;5009873;28;20046;-71
2022/06/15 11:10:34;;;;;;;;;;;;;;;29.08;34.38;101737.75;5011262;28;20053;-72
2022/06/15 11:13:03;;;;;;;6.32;3.28;;;;;;;28.51;32.00;101733.44;5008977;28;19920;-70
2022/06/15 11:18:59;;;;;;;8.57;3.45;;;;;;;28.69;34.04;101735.69;4996768;28;20132;-72
2022/06/15 11:21:28;;;;;;;6.35;2.60;;;;;;;29.16;35.91;101742.31;4997246;28;20050;-71
2022/06/15 11:24:22;;;;;;;12.15;3.50;;;;;;;29.58;33.66;101737.44;4994182;28;20046;-71
2022/06/15 11:26:56;;;;;;;10.43;3.72;;;;;;;29.74;33.02;101737.00;4998839;28;20429;-72
2022/06/15 11:29:30;;;;;;;9.07;3.42;;;;;;;29.49;33.53;101731.16;5006397;28;20129;-71
2022/06/15 11:32:03;;;;;;;10.27;3.92;;;;;;;29.16;30.93;101743.19;4992634;28;20056;-73
2022/06/15 11:34:33;;;;;;;8.98;2.90;;;;;;;28.87;33.74;101740.69;4994402;28;20046;-71
2022/06/15 11:37:10;;;;;;;4.47;2.72;;;;;;;29.23;35.28;101743.19;5004598;28;20041;-68
2022/06/15 11:39:55;;;;;;;9.02;2.78;;;;;;;29.61;33.29;101731.38;4999647;28;20042;-72
2022/06/15 11:42:21;;;;;;;9.05;3.13;;;;;;;29.67;30.16;101737.00;4991491;28;20750;-70
2022/06/15 11:44:46;;;;;;;10.25;3.70;;;;;;;29.71;34.20;101743.94;4986579;28;20034;-71
2022/06/15 11:47:24;;;;;;;7.60;3.15;;;;;;;29.33;31.30;101740.84;4992436;28;20038;-72
2022/06/15 11:49:52;;;;;;;9.15;3.10;;;;;;;29.41;30.96;101736.97;4994978;28;20104;-72
2022/06/15 11:52:41;;;;;;;6.78;2.85;;;;;;;29.55;32.49;101744.34;4998096;28;20049;-72
2022/06/15 11:55:24;;;;;;;8.93;3.10;;;;;;;29.88;32.76;101749.09;4988941;28;20050;-73
2022/06/15 11:57:52;;;;;;;5.43;2.83;;;;;;;29.54;30.87;101744.53;5005322;28;20052;-71
2022/06/15 12:00:47;;;;;;;6.68;3.38;;;;;;;29.60;31.66;101730.53;4999453;28;20056;-71